createdAt,value
2022-09-12T00:00:23.570Z,11.57
2022-09-12T00:02:54.615Z,11.51
2022-09-12T00:05:23.369Z,11.47
2022-09-12T00:07:51.004Z,11.44
2022-09-12T00:10:18.903Z,11.41
2022-09-12T00:12:46.727Z,11.36
2022-09-12T00:15:14.479Z,11.33
2022-09-12T00:17:42.153Z,11.31
2022-09-12T00:20:12.545Z,11.25
2022-09-12T00:22:40.077Z,11.23
2022-09-12T00:25:08.487Z,11.20
2022-09-12T00:27:36.138Z,11.16
2022-09-12T00:30:03.745Z,11.14
2022-09-12T00:32:31.293Z,11.13
2022-09-12T00:34:58.826Z,11.09
2022-09-12T00:37:27.725Z,11.07
2022-09-12T00:39:55.342Z,11.03
2022-09-12T00:42:22.929Z,11.01
2022-09-12T00:44:52.821Z,11.00
2022-09-12T00:47:31.967Z,10.97
2022-09-12T00:50:06.987Z,10.94
2022-09-12T00:52:42.888Z,10.91
2022-09-12T00:55:14.025Z,10.91
2022-09-12T00:57:46.502Z,10.88
2022-09-12T01:00:16.900Z,10.83
2022-09-12T01:02:46.586Z,10.81
2022-09-12T01:05:14.831Z,10.76
2022-09-12T01:07:48.422Z,10.72
2022-09-12T01:10:16.190Z,10.70
2022-09-12T01:12:44.723Z,10.67
2022-09-12T01:15:12.342Z,10.64
2022-09-12T01:17:49.977Z,10.61
2022-09-12T01:20:47.105Z,10.60
2022-09-12T01:23:53.186Z,10.56
2022-09-12T01:26:45.194Z,10.57
2022-09-12T01:29:28.331Z,10.58
2022-09-12T01:32:07.629Z,10.56
2022-09-12T01:34:45.818Z,10.53
2022-09-12T01:37:19.538Z,10.49
2022-09-12T01:39:58.069Z,10.47
2022-09-12T01:42:34.449Z,10.44
2022-09-12T01:45:08.878Z,10.43
2022-09-12T01:47:41.626Z,10.42
2022-09-12T01:50:14.011Z,10.42
2022-09-12T01:52:46.465Z,10.40
2022-09-12T01:55:18.914Z,10.38
2022-09-12T01:57:52.645Z,10.36
2022-09-12T02:00:21.266Z,10.34
2022-09-12T02:02:55.654Z,10.33
2022-09-12T02:05:29.285Z,10.31
2022-09-12T02:08:06.861Z,10.27
2022-09-12T02:10:43.035Z,10.18
2022-09-12T02:13:15.939Z,10.17
2022-09-12T02:15:48.186Z,10.16
2022-09-12T02:18:19.410Z,10.15
2022-09-12T02:20:49.504Z,10.18
2022-09-12T02:23:22.007Z,10.19
2022-09-12T02:25:55.627Z,10.21
2022-09-12T02:28:27.517Z,10.20
2022-09-12T02:31:04.266Z,10.20
2022-09-12T02:33:44.323Z,10.18
2022-09-12T02:36:21.886Z,10.18
2022-09-12T02:38:49.813Z,10.19
2022-09-12T02:41:20.490Z,10.17
2022-09-12T02:43:49.266Z,10.18
2022-09-12T02:46:22.382Z,10.21
2022-09-12T02:48:51.749Z,10.25
2022-09-12T02:51:23.529Z,10.27
2022-09-12T02:53:51.617Z,10.29
2022-09-12T02:56:24.858Z,10.30
2022-09-12T02:58:53.275Z,10.33
2022-09-12T03:01:31.041Z,10.37
2022-09-12T03:04:29.550Z,10.41
2022-09-12T03:07:10.861Z,10.44
2022-09-12T03:09:44.035Z,10.47
2022-09-12T03:12:24.971Z,10.47
2022-09-12T03:15:13.259Z,10.42
2022-09-12T03:17:57.420Z,10.36
2022-09-12T03:20:42.250Z,10.32
2022-09-12T03:23:19.478Z,10.30
2022-09-12T03:25:52.688Z,10.28
2022-09-12T03:28:22.995Z,10.28
2022-09-12T03:30:53.381Z,10.24
2022-09-12T03:33:23.073Z,10.23
2022-09-12T03:35:52.721Z,10.18
2022-09-12T03:38:20.940Z,10.16
2022-09-12T03:40:52.709Z,10.14
2022-09-12T03:43:22.205Z,10.09
2022-09-12T03:45:52.056Z,10.06
2022-09-12T03:48:19.978Z,9.99
2022-09-12T03:50:47.494Z,9.94
2022-09-12T03:53:17.512Z,9.90
2022-09-12T03:55:45.231Z,9.85
2022-09-12T03:58:12.785Z,9.82
2022-09-12T04:00:40.927Z,9.77
2022-09-12T04:03:08.437Z,9.72
2022-09-12T04:05:36.694Z,9.69
2022-09-12T04:08:04.245Z,9.66
2022-09-12T04:10:33.706Z,9.64
2022-09-12T04:13:01.233Z,9.63
2022-09-12T04:15:28.765Z,9.61
2022-09-12T04:17:56.292Z,9.60
2022-09-12T04:20:23.874Z,9.60
2022-09-12T04:22:51.437Z,9.60
2022-09-12T04:25:19.010Z,9.62
2022-09-12T04:27:48.242Z,9.64
2022-09-12T04:30:16.138Z,9.66
2022-09-12T04:32:43.668Z,9.70
2022-09-12T04:35:12.239Z,9.70
2022-09-12T04:37:39.790Z,9.71
2022-09-12T04:40:08.379Z,9.74
2022-09-12T04:42:35.970Z,9.81
2022-09-12T04:45:06.185Z,9.84
2022-09-12T04:47:33.723Z,9.86
2022-09-12T04:50:01.286Z,9.89
2022-09-12T04:52:29.353Z,9.92
2022-09-12T04:54:57.266Z,9.95
2022-09-12T04:57:25.849Z,9.98
2022-09-12T04:59:53.387Z,10.03
2022-09-12T05:02:22.517Z,10.06
2022-09-12T05:04:50.097Z,10.11
2022-09-12T05:07:17.634Z,10.13
2022-09-12T05:09:45.195Z,10.20
2022-09-12T05:12:13.304Z,10.28
2022-09-12T05:14:40.938Z,10.34
2022-09-12T05:17:08.465Z,10.43
2022-09-12T05:19:37.688Z,10.56
2022-09-12T05:22:06.651Z,10.70
2022-09-12T05:24:35.113Z,10.84
2022-09-12T05:27:03.387Z,10.95
2022-09-12T05:29:31.002Z,11.02
2022-09-12T05:31:58.546Z,11.11
2022-09-12T05:34:27.809Z,11.23
2022-09-12T05:36:56.782Z,11.41
2022-09-12T05:39:24.543Z,11.64
2022-09-12T05:41:52.072Z,12.02
2022-09-12T05:44:19.946Z,12.56
2022-09-12T05:46:50.755Z,13.25
2022-09-12T05:49:18.307Z,14.00
2022-09-12T05:51:46.566Z,14.86
2022-09-12T05:54:19.403Z,15.68
2022-09-12T05:56:47.957Z,16.56
2022-09-12T05:59:17.286Z,17.38
2022-09-12T06:01:45.819Z,18.13
2022-09-12T06:04:13.589Z,18.60
2022-09-12T06:06:45.029Z,19.32
2022-09-12T06:09:15.685Z,19.78
2022-09-12T06:11:43.331Z,20.43
2022-09-12T06:14:12.728Z,20.76
2022-09-12T06:16:40.470Z,21.06
2022-09-12T06:19:13.752Z,21.34
2022-09-12T06:21:41.448Z,21.38
2022-09-12T06:24:09.286Z,21.62
2022-09-12T06:26:38.295Z,21.30
2022-09-12T06:29:05.989Z,21.20
2022-09-12T06:31:35.426Z,21.30
2022-09-12T06:34:05.654Z,21.44
2022-09-12T06:36:36.228Z,21.52
2022-09-12T06:39:06.286Z,21.75
2022-09-12T06:41:34.184Z,21.86
2022-09-12T06:44:03.907Z,21.85
2022-09-12T06:46:32.038Z,22.01
2022-09-12T06:49:00.630Z,22.20
2022-09-12T06:51:29.262Z,22.09
2022-09-12T06:53:58.200Z,21.81
2022-09-12T06:56:26.989Z,21.89
2022-09-12T06:58:56.970Z,22.16
2022-09-12T07:01:27.739Z,22.23
2022-09-12T07:03:57.299Z,22.17
2022-09-12T07:06:31.508Z,22.45
2022-09-12T07:08:59.505Z,22.63
2022-09-12T07:11:29.257Z,22.76
2022-09-12T07:13:57.811Z,22.71
2022-09-12T07:16:26.955Z,22.67
2022-09-12T07:18:56.397Z,22.40
2022-09-12T07:21:24.037Z,22.20
2022-09-12T07:23:52.697Z,21.95
2022-09-12T07:26:20.250Z,21.78
2022-09-12T07:28:52.001Z,21.38
2022-09-12T07:31:20.618Z,21.30
2022-09-12T07:33:54.449Z,21.24
2022-09-12T07:36:24.590Z,21.22
2022-09-12T07:38:57.533Z,21.26
2022-09-12T07:41:27.481Z,21.39
2022-09-12T07:43:57.025Z,21.60
2022-09-12T07:46:25.386Z,21.77
2022-09-12T07:48:56.355Z,21.81
2022-09-12T07:51:24.922Z,21.89
2022-09-12T07:53:52.737Z,21.98
2022-09-12T07:56:22.007Z,22.03
2022-09-12T07:58:51.011Z,22.01
2022-09-12T08:01:20.011Z,21.79
2022-09-12T08:03:49.109Z,21.64
2022-09-12T08:06:21.000Z,21.67
2022-09-12T08:08:49.158Z,21.70
2022-09-12T08:11:18.398Z,21.78
2022-09-12T08:13:49.640Z,21.66
2022-09-12T08:16:22.825Z,21.70
2022-09-12T08:18:51.073Z,21.81
2022-09-12T08:21:21.931Z,21.79
2022-09-12T08:23:54.010Z,21.70
2022-09-12T08:26:21.586Z,21.77
2022-09-12T08:28:49.701Z,21.83
2022-09-12T08:31:19.809Z,21.83
2022-09-12T08:33:47.848Z,21.59
2022-09-12T08:36:17.767Z,21.63
2022-09-12T08:38:48.606Z,21.71
2022-09-12T08:41:27.199Z,21.73
2022-09-12T08:44:08.786Z,21.83
2022-09-12T08:46:44.687Z,21.94
2022-09-12T08:49:16.290Z,21.93
2022-09-12T08:51:44.048Z,22.07
2022-09-12T08:54:24.738Z,22.24
2022-09-12T08:56:55.011Z,22.24
2022-09-12T08:59:22.929Z,22.36
2022-09-12T09:01:55.444Z,22.45
2022-09-12T09:04:38.626Z,22.63
2022-09-12T09:07:23.545Z,22.49
2022-09-12T09:10:07.974Z,22.53
2022-09-12T09:12:43.234Z,22.41
2022-09-12T09:15:40.983Z,22.47
2022-09-12T09:18:16.627Z,22.53
2022-09-12T09:20:50.043Z,22.46
2022-09-12T09:23:23.159Z,22.55
2022-09-12T09:25:57.559Z,22.63
2022-09-12T09:28:31.964Z,22.64
2022-09-12T09:30:59.795Z,22.66
2022-09-12T09:33:34.705Z,22.78
2022-09-12T09:36:14.818Z,22.73
2022-09-12T09:38:49.397Z,22.81
2022-09-12T09:41:36.256Z,22.92
2022-09-12T09:44:04.267Z,22.87
2022-09-12T09:46:32.760Z,22.85
2022-09-12T09:49:03.815Z,22.79
2022-09-12T09:51:36.043Z,22.74
2022-09-12T09:54:12.409Z,22.78
2022-09-12T09:56:43.132Z,22.86
2022-09-12T09:59:12.726Z,22.91
2022-09-12T10:01:46.303Z,22.98
2022-09-12T10:04:20.314Z,23.07
2022-09-12T10:06:48.459Z,23.03
2022-09-12T10:09:23.094Z,23.13
2022-09-12T10:11:53.094Z,23.27
2022-09-12T10:14:36.688Z,23.38
2022-09-12T10:17:23.556Z,23.43
2022-09-12T10:20:10.506Z,23.44
2022-09-12T10:22:39.630Z,23.49
2022-09-12T10:25:13.052Z,23.43
2022-09-12T10:27:43.170Z,23.29
2022-09-12T10:30:19.200Z,23.11
2022-09-12T10:32:50.571Z,23.13
2022-09-12T10:35:21.742Z,23.06
2022-09-12T10:37:56.701Z,23.03
2022-09-12T10:40:26.404Z,23.13
2022-09-12T10:42:57.318Z,23.36
2022-09-12T10:45:29.011Z,23.45
2022-09-12T10:48:02.087Z,23.53
2022-09-12T10:50:33.234Z,23.65
2022-09-12T10:53:15.838Z,23.69
2022-09-12T10:56:02.152Z,23.59
2022-09-12T10:58:50.049Z,23.54
2022-09-12T11:01:33.828Z,23.86
2022-09-12T11:04:15.616Z,24.12
2022-09-12T11:06:55.670Z,24.23
2022-09-12T11:09:29.634Z,24.15
2022-09-12T11:12:09.525Z,24.18
2022-09-12T11:14:52.406Z,24.29
2022-09-12T11:17:31.920Z,24.16
2022-09-12T11:20:33.371Z,24.03
2022-09-12T11:23:26.615Z,24.03
2022-09-12T11:26:00.964Z,23.88
2022-09-12T11:28:36.456Z,23.71
2022-09-12T11:31:34.501Z,23.84
2022-09-12T11:34:09.198Z,23.91
2022-09-12T11:36:44.265Z,24.03
2022-09-12T11:39:15.461Z,23.96
2022-09-12T11:41:44.981Z,23.95
2022-09-12T11:44:18.514Z,23.97
2022-09-12T11:46:51.555Z,23.95
2022-09-12T11:49:34.788Z,24.19
2022-09-12T11:52:07.618Z,24.34
2022-09-12T11:54:41.532Z,24.13
2022-09-12T11:57:16.054Z,24.33
2022-09-12T11:59:49.419Z,24.32
2022-09-12T12:02:26.377Z,24.40
2022-09-12T12:05:04.819Z,24.65
2022-09-12T12:07:45.377Z,24.74
2022-09-12T12:10:26.618Z,24.68
2022-09-12T12:12:56.441Z,24.68
2022-09-12T12:15:26.551Z,24.48
2022-09-12T12:18:08.732Z,24.43
2022-09-12T12:20:37.236Z,24.30
2022-09-12T12:23:05.045Z,24.40
2022-09-12T12:25:52.751Z,24.56
2022-09-12T12:28:53.796Z,24.54
2022-09-12T12:31:21.366Z,24.53
2022-09-12T12:33:56.562Z,24.55
2022-09-12T12:36:40.182Z,24.55
2022-09-12T12:39:48.051Z,24.72
2022-09-12T12:43:04.429Z,24.76
2022-09-12T12:46:03.692Z,24.91
2022-09-12T12:48:36.283Z,24.98
2022-09-12T12:51:25.437Z,25.17
2022-09-12T12:53:54.554Z,25.25
2022-09-12T12:56:39.776Z,25.24
2022-09-12T12:59:18.622Z,25.38
2022-09-12T13:01:54.754Z,25.17
2022-09-12T13:04:25.898Z,25.25
2022-09-12T13:07:05.837Z,25.31
2022-09-12T13:09:39.453Z,25.40
2022-09-12T13:12:10.014Z,25.40
2022-09-12T13:14:52.637Z,25.44
2022-09-12T13:17:26.235Z,25.54
2022-09-12T13:20:26.130Z,25.65
2022-09-12T13:22:53.281Z,25.53
2022-09-12T13:25:24.774Z,25.31
2022-09-12T13:28:01.173Z,25.37
2022-09-12T13:30:30.111Z,25.40
2022-09-12T13:33:00.082Z,25.35
2022-09-12T13:35:37.403Z,25.22
2022-09-12T13:38:15.908Z,25.19
2022-09-12T13:40:56.990Z,25.38
2022-09-12T13:43:37.101Z,25.63
2022-09-12T13:46:04.829Z,25.74
2022-09-12T13:48:32.460Z,25.64
2022-09-12T13:51:02.467Z,25.65
2022-09-12T13:53:37.826Z,25.46
2022-09-12T13:56:05.423Z,25.46
2022-09-12T13:58:35.106Z,25.28
2022-09-12T14:01:06.840Z,25.33
2022-09-12T14:03:58.998Z,25.11
2022-09-12T14:06:27.510Z,24.74
2022-09-12T14:08:58.279Z,24.43
2022-09-12T14:11:28.802Z,24.45
2022-09-12T14:13:57.110Z,24.35
2022-09-12T14:16:27.271Z,24.18
2022-09-12T14:18:54.889Z,24.05
2022-09-12T14:21:34.905Z,23.90
2022-09-12T14:24:08.498Z,23.80
2022-09-12T14:26:37.451Z,23.75
2022-09-12T14:29:07.484Z,23.65
2022-09-12T14:31:37.617Z,23.63
2022-09-12T14:34:13.519Z,23.65
2022-09-12T14:36:45.809Z,23.66
2022-09-12T14:39:22.835Z,23.67
2022-09-12T14:41:50.905Z,23.54
2022-09-12T14:44:21.954Z,23.56
2022-09-12T14:46:51.141Z,23.55
2022-09-12T14:49:22.401Z,23.42
2022-09-12T14:51:56.389Z,23.32
2022-09-12T14:54:39.378Z,23.36
2022-09-12T14:57:17.808Z,23.29
2022-09-12T14:59:45.323Z,23.28
2022-09-12T15:02:24.054Z,23.18
2022-09-12T15:04:53.227Z,23.21
2022-09-12T15:07:32.474Z,23.17
2022-09-12T15:10:03.432Z,23.13
2022-09-12T15:12:31.029Z,23.13
2022-09-12T15:15:03.229Z,23.01
2022-09-12T15:17:30.771Z,22.99
2022-09-12T15:19:58.328Z,22.94
2022-09-12T15:22:26.916Z,22.90
2022-09-12T15:24:56.310Z,22.83
2022-09-12T15:27:26.665Z,22.81
2022-09-12T15:29:54.402Z,22.70
2022-09-12T15:32:24.706Z,22.63
2022-09-12T15:34:52.671Z,22.51
2022-09-12T15:37:21.758Z,22.48
2022-09-12T15:39:49.857Z,22.40
2022-09-12T15:42:18.797Z,22.28
2022-09-12T15:44:47.666Z,22.21
2022-09-12T15:47:15.374Z,22.17
2022-09-12T15:49:42.905Z,22.15
2022-09-12T15:52:15.687Z,22.09
2022-09-12T15:54:44.022Z,22.02
2022-09-12T15:57:11.670Z,22.02
2022-09-12T15:59:39.556Z,21.98
2022-09-12T16:02:10.247Z,21.91
2022-09-12T16:04:38.424Z,21.83
2022-09-12T16:07:06.106Z,21.77
2022-09-12T16:09:34.362Z,21.72
2022-09-12T16:12:02.258Z,21.67
2022-09-12T16:14:29.827Z,21.63
2022-09-12T16:16:57.369Z,21.57
2022-09-12T16:19:26.265Z,21.52
2022-09-12T16:21:53.778Z,21.46
2022-09-12T16:24:21.439Z,21.34
2022-09-12T16:26:49.297Z,21.30
2022-09-12T16:29:17.069Z,21.23
2022-09-12T16:31:44.829Z,21.13
2022-09-12T16:34:13.666Z,21.05
2022-09-12T16:36:45.122Z,20.96
2022-09-12T16:39:12.650Z,20.91
2022-09-12T16:41:42.070Z,20.79
2022-09-12T16:44:10.149Z,20.75
2022-09-12T16:46:37.883Z,20.69
2022-09-12T16:49:06.350Z,20.63
2022-09-12T16:51:35.776Z,20.55
2022-09-12T16:54:05.085Z,20.48
2022-09-12T16:56:32.652Z,20.42
2022-09-12T16:59:00.184Z,20.39
2022-09-12T17:01:28.502Z,20.34
2022-09-12T17:03:57.370Z,20.30
2022-09-12T17:06:26.122Z,20.25
2022-09-12T17:08:55.377Z,20.22
2022-09-12T17:11:26.640Z,20.17
2022-09-12T17:14:05.500Z,20.12
2022-09-12T17:16:34.944Z,20.05
2022-09-12T17:19:02.577Z,20.02
2022-09-12T17:21:30.266Z,19.97
2022-09-12T17:23:59.086Z,19.92
2022-09-12T17:26:28.203Z,19.89
2022-09-12T17:28:55.836Z,19.84
2022-09-12T17:31:23.457Z,19.81
2022-09-12T17:33:51.065Z,19.78
2022-09-12T17:36:18.956Z,19.75
2022-09-12T17:38:47.283Z,19.71
2022-09-12T17:41:17.540Z,19.66
2022-09-12T17:43:49.953Z,19.61
2022-09-12T17:46:18.052Z,19.57
2022-09-12T17:48:45.682Z,19.52
2022-09-12T17:51:14.917Z,19.51
2022-09-12T17:53:43.177Z,19.47
2022-09-12T17:56:12.225Z,19.41
2022-09-12T17:58:40.115Z,19.38
2022-09-12T18:01:30.359Z,19.34
2022-09-12T18:04:00.452Z,19.29
2022-09-12T18:06:28.681Z,19.25
2022-09-12T18:08:56.561Z,19.21
2022-09-12T18:11:24.073Z,19.18
2022-09-12T18:13:51.607Z,19.15
2022-09-12T18:16:20.913Z,19.10
2022-09-12T18:18:50.902Z,19.08
2022-09-12T18:21:19.738Z,19.06
2022-09-12T18:23:47.655Z,19.03
2022-09-12T18:26:15.424Z,19.00
2022-09-12T18:28:44.873Z,19.01
2022-09-12T18:31:15.072Z,18.99
2022-09-12T18:33:44.162Z,18.99
2022-09-12T18:36:13.773Z,18.98
2022-09-12T18:38:42.223Z,18.97
2022-09-12T18:41:11.511Z,18.97
2022-09-12T18:43:39.467Z,18.99
2022-09-12T18:46:08.544Z,18.97
2022-09-12T18:48:36.979Z,18.97
2022-09-12T18:51:08.782Z,18.97
2022-09-12T18:53:37.694Z,18.97
2022-09-12T18:56:08.519Z,18.97
2022-09-12T18:58:36.349Z,18.95
2022-09-12T19:01:10.627Z,18.93
2022-09-12T19:03:38.170Z,18.92
2022-09-12T19:06:12.246Z,18.93
2022-09-12T19:08:40.463Z,18.92
2022-09-12T19:11:08.723Z,18.89
2022-09-12T19:13:38.127Z,18.88
2022-09-12T19:16:08.886Z,18.85
2022-09-12T19:18:36.897Z,18.83
2022-09-12T19:21:05.250Z,18.79
2022-09-12T19:23:35.306Z,18.73
2022-09-12T19:26:05.530Z,18.67
2022-09-12T19:28:33.547Z,18.62
2022-09-12T19:31:01.287Z,18.55
2022-09-12T19:33:29.228Z,18.48
2022-09-12T19:35:56.766Z,18.45
2022-09-12T19:38:24.285Z,18.41
2022-09-12T19:40:59.522Z,18.36
2022-09-12T19:43:27.905Z,18.32
2022-09-12T19:45:56.240Z,18.31
2022-09-12T19:48:24.230Z,18.29
2022-09-12T19:50:51.897Z,18.29
2022-09-12T19:53:19.545Z,18.28
2022-09-12T19:55:47.293Z,18.30
2022-09-12T19:58:16.165Z,18.29
2022-09-12T20:00:43.733Z,18.31
2022-09-12T20:03:11.282Z,18.31
2022-09-12T20:05:42.612Z,18.30
2022-09-12T20:08:10.727Z,18.30
2022-09-12T20:10:38.290Z,18.30
2022-09-12T20:13:06.636Z,18.28
2022-09-12T20:15:35.697Z,18.28
2022-09-12T20:18:03.323Z,18.28
2022-09-12T20:20:31.866Z,18.27
2022-09-12T20:22:59.402Z,18.25
2022-09-12T20:25:26.934Z,18.25
2022-09-12T20:27:59.464Z,18.24
2022-09-12T20:30:27.722Z,18.23
2022-09-12T20:32:56.585Z,18.23
2022-09-12T20:35:24.150Z,18.24
2022-09-12T20:37:51.653Z,18.23
2022-09-12T20:40:19.826Z,18.24
2022-09-12T20:42:47.380Z,18.22
2022-09-12T20:45:15.057Z,18.24
2022-09-12T20:47:42.922Z,18.22
2022-09-12T20:50:11.984Z,18.22
2022-09-12T20:52:39.498Z,18.23
2022-09-12T20:55:07.662Z,18.24
2022-09-12T20:57:35.181Z,18.24
2022-09-12T21:00:03.565Z,18.24
2022-09-12T21:02:31.207Z,18.21
2022-09-12T21:04:58.800Z,18.25
2022-09-12T21:07:27.694Z,18.26
2022-09-12T21:09:55.214Z,18.27
2022-09-12T21:12:22.826Z,18.29
2022-09-12T21:14:50.357Z,18.27
2022-09-12T21:17:18.222Z,18.27
2022-09-12T21:19:45.754Z,18.27
2022-09-12T21:22:13.262Z,18.29
2022-09-12T21:24:42.190Z,18.29
2022-09-12T21:27:10.066Z,18.28
2022-09-12T21:29:37.954Z,18.29
2022-09-12T21:32:06.049Z,18.29
2022-09-12T21:34:33.602Z,18.31
2022-09-12T21:37:01.129Z,18.32
2022-09-12T21:39:28.661Z,18.29
2022-09-12T21:41:57.535Z,18.29
2022-09-12T21:44:25.045Z,18.28
2022-09-12T21:46:52.610Z,18.27
2022-09-12T21:49:20.143Z,18.27
2022-09-12T21:51:47.877Z,18.29
2022-09-12T21:54:15.720Z,18.32
2022-09-12T21:56:43.321Z,18.30
2022-09-12T21:59:12.198Z,18.27
2022-09-12T22:01:39.783Z,18.28
2022-09-12T22:04:07.375Z,18.28
2022-09-12T22:06:34.917Z,18.30
2022-09-12T22:09:02.660Z,18.28
2022-09-12T22:11:30.545Z,18.29
2022-09-12T22:13:58.221Z,18.27
2022-09-12T22:16:27.241Z,18.28
2022-09-12T22:18:54.797Z,18.27
2022-09-12T22:21:24.249Z,18.27
2022-09-12T22:24:09.506Z,18.28
2022-09-12T22:26:44.430Z,18.27
2022-09-12T22:29:13.231Z,18.28
2022-09-12T22:31:42.475Z,18.27
2022-09-12T22:34:10.058Z,18.27
2022-09-12T22:36:39.145Z,18.24
2022-09-12T22:39:07.266Z,18.25
2022-09-12T22:41:34.862Z,18.23
2022-09-12T22:44:02.581Z,18.18
2022-09-12T22:46:30.843Z,18.15
2022-09-12T22:48:59.857Z,18.17
2022-09-12T22:51:27.403Z,18.15
2022-09-12T22:53:56.382Z,18.15
2022-09-12T22:56:24.795Z,18.13
2022-09-12T22:58:52.396Z,18.09
2022-09-12T23:01:20.165Z,18.06
2022-09-12T23:03:47.757Z,18.04
2022-09-12T23:06:16.834Z,17.99
2022-09-12T23:08:44.715Z,17.92
2022-09-12T23:11:13.798Z,17.90
2022-09-12T23:13:43.694Z,17.87
2022-09-12T23:16:16.662Z,17.81
2022-09-12T23:18:44.314Z,17.74
2022-09-12T23:21:13.399Z,17.71
2022-09-12T23:23:42.519Z,17.65
2022-09-12T23:26:12.519Z,17.60
2022-09-12T23:28:40.847Z,17.57
2022-09-12T23:31:09.721Z,17.52
2022-09-12T23:33:37.754Z,17.44
2022-09-12T23:36:07.091Z,17.31
2022-09-12T23:38:36.203Z,17.23
2022-09-12T23:41:05.862Z,17.17
2022-09-12T23:43:33.989Z,17.08
2022-09-12T23:46:01.841Z,16.99
2022-09-12T23:48:29.526Z,16.96
2022-09-12T23:50:57.079Z,16.90
2022-09-12T23:53:25.017Z,16.84
2022-09-12T23:55:53.161Z,16.80
2022-09-12T23:58:22.708Z,16.75
